sensor_id;sensor_type;location;lat;lon;timestamp;P1;durP1;ratioP1;P2;durP2;ratioP2
26600;SDS011;14241;49.260;10.496;2022-09-09T00:00:15;3.20;;;1.13;;
26600;SDS011;14241;49.260;10.496;2022-09-09T00:05:31;3.45;;;1.20;;
26600;SDS011;14241;49.260;10.496;2022-09-09T00:07:58;1.67;;;1.15;;
26600;SDS011;14241;49.260;10.496;2022-09-09T00:10:39;5.65;;;1.50;;
26600;SDS011;14241;49.260;10.496;2022-09-09T00:18:50;2.67;;;1.00;;
26600;SDS011;14241;49.260;10.496;2022-09-09T00:21:17;3.42;;;1.10;;
26600;SDS011;14241;49.260;10.496;2022-09-09T00:26:35;2.05;;;1.00;;
26600;SDS011;14241;49.260;10.496;2022-09-09T00:29:14;4.38;;;1.40;;
26600;SDS011;14241;49.260;10.496;2022-09-09T00:31:43;4.32;;;1.15;;
26600;SDS011;14241;49.260;10.496;2022-09-09T00:34:24;4.50;;;1.40;;
26600;SDS011;14241;49.260;10.496;2022-09-09T00:36:52;4.63;;;1.30;;
26600;SDS011;14241;49.260;10.496;2022-09-09T00:44:39;3.25;;;1.33;;
26600;SDS011;14241;49.260;10.496;2022-09-09T00:47:29;2.80;;;0.90;;
26600;SDS011;14241;49.260;10.496;2022-09-09T00:50:01;2.22;;;1.10;;
26600;SDS011;14241;49.260;10.496;2022-09-09T00:55:17;3.25;;;1.27;;
26600;SDS011;14241;49.260;10.496;2022-09-09T00:57:45;4.72;;;1.20;;
26600;SDS011;14241;49.260;10.496;2022-09-09T01:00:21;4.75;;;1.30;;
26600;SDS011;14241;49.260;10.496;2022-09-09T01:08:35;3.58;;;1.38;;
26600;SDS011;14241;49.260;10.496;2022-09-09T01:10:53;5.22;;;1.30;;
26600;SDS011;14241;49.260;10.496;2022-09-09T01:13:23;2.83;;;1.13;;
26600;SDS011;14241;49.260;10.496;2022-09-09T01:15:49;6.30;;;1.42;;
26600;SDS011;14241;49.260;10.496;2022-09-09T01:18:17;3.10;;;1.23;;
26600;SDS011;14241;49.260;10.496;2022-09-09T01:23:15;5.72;;;1.23;;
26600;SDS011;14241;49.260;10.496;2022-09-09T01:28:29;3.25;;;1.10;;
26600;SDS011;14241;49.260;10.496;2022-09-09T01:30:55;2.22;;;0.93;;
26600;SDS011;14241;49.260;10.496;2022-09-09T01:33:21;2.58;;;1.42;;
26600;SDS011;14241;49.260;10.496;2022-09-09T01:38:15;2.92;;;1.40;;
26600;SDS011;14241;49.260;10.496;2022-09-09T01:40:42;4.03;;;1.40;;
26600;SDS011;14241;49.260;10.496;2022-09-09T01:43:07;4.85;;;1.25;;
26600;SDS011;14241;49.260;10.496;2022-09-09T01:45:32;5.47;;;1.65;;
26600;SDS011;14241;49.260;10.496;2022-09-09T01:47:58;3.40;;;1.55;;
26600;SDS011;14241;49.260;10.496;2022-09-09T01:50:24;3.45;;;1.38;;
26600;SDS011;14241;49.260;10.496;2022-09-09T01:52:50;2.95;;;1.13;;
26600;SDS011;14241;49.260;10.496;2022-09-09T01:55:18;2.38;;;1.20;;
26600;SDS011;14241;49.260;10.496;2022-09-09T02:00:28;3.58;;;1.20;;
26600;SDS011;14241;49.260;10.496;2022-09-09T02:05:41;4.72;;;1.20;;
26600;SDS011;14241;49.260;10.496;2022-09-09T02:08:08;2.53;;;1.20;;
26600;SDS011;14241;49.260;10.496;2022-09-09T02:10:42;6.45;;;1.50;;
26600;SDS011;14241;49.260;10.496;2022-09-09T02:13:10;1.20;;;1.00;;
26600;SDS011;14241;49.260;10.496;2022-09-09T02:18:01;5.07;;;1.40;;
26600;SDS011;14241;49.260;10.496;2022-09-09T02:20:31;3.45;;;1.15;;
26600;SDS011;14241;49.260;10.496;2022-09-09T02:22:58;3.53;;;1.33;;
26600;SDS011;14241;49.260;10.496;2022-09-09T02:25:24;3.78;;;1.25;;
26600;SDS011;14241;49.260;10.496;2022-09-09T02:27:50;4.10;;;1.63;;
26600;SDS011;14241;49.260;10.496;2022-09-09T02:30:20;3.55;;;1.35;;
26600;SDS011;14241;49.260;10.496;2022-09-09T02:32:45;4.05;;;1.30;;
26600;SDS011;14241;49.260;10.496;2022-09-09T02:35:13;2.60;;;1.38;;
26600;SDS011;14241;49.260;10.496;2022-09-09T02:37:39;5.68;;;1.63;;
26600;SDS011;14241;49.260;10.496;2022-09-09T02:40:07;3.65;;;1.65;;
26600;SDS011;14241;49.260;10.496;2022-09-09T02:42:38;2.58;;;1.50;;
26600;SDS011;14241;49.260;10.496;2022-09-09T02:45:04;2.65;;;1.50;;
26600;SDS011;14241;49.260;10.496;2022-09-09T02:47:36;3.60;;;1.40;;
26600;SDS011;14241;49.260;10.496;2022-09-09T02:55:29;3.45;;;1.60;;
26600;SDS011;14241;49.260;10.496;2022-09-09T02:57:57;6.20;;;1.65;;
26600;SDS011;14241;49.260;10.496;2022-09-09T03:00:26;3.22;;;1.55;;
26600;SDS011;14241;49.260;10.496;2022-09-09T03:02:52;4.03;;;1.52;;
26600;SDS011;14241;49.260;10.496;2022-09-09T03:05:19;4.57;;;1.70;;
26600;SDS011;14241;49.260;10.496;2022-09-09T03:07:44;2.57;;;1.47;;
26600;SDS011;14241;49.260;10.496;2022-09-09T03:10:09;4.10;;;1.43;;
26600;SDS011;14241;49.260;10.496;2022-09-09T03:12:35;6.47;;;2.00;;
26600;SDS011;14241;49.260;10.496;2022-09-09T03:15:00;6.00;;;1.73;;
26600;SDS011;14241;49.260;10.496;2022-09-09T03:17:26;5.17;;;1.73;;
26600;SDS011;14241;49.260;10.496;2022-09-09T03:19:53;6.00;;;1.63;;
26600;SDS011;14241;49.260;10.496;2022-09-09T03:22:19;5.78;;;1.80;;
26600;SDS011;14241;49.260;10.496;2022-09-09T03:24:45;2.38;;;1.27;;
26600;SDS011;14241;49.260;10.496;2022-09-09T03:27:12;2.92;;;1.42;;
26600;SDS011;14241;49.260;10.496;2022-09-09T03:29:38;3.63;;;1.48;;
26600;SDS011;14241;49.260;10.496;2022-09-09T03:32:03;3.73;;;1.23;;
26600;SDS011;14241;49.260;10.496;2022-09-09T03:34:29;5.47;;;1.63;;
26600;SDS011;14241;49.260;10.496;2022-09-09T03:36:54;3.03;;;1.60;;
26600;SDS011;14241;49.260;10.496;2022-09-09T03:39:19;6.00;;;1.43;;
26600;SDS011;14241;49.260;10.496;2022-09-09T03:41:44;2.88;;;1.48;;
26600;SDS011;14241;49.260;10.496;2022-09-09T03:44:11;3.58;;;1.60;;
26600;SDS011;14241;49.260;10.496;2022-09-09T03:46:36;2.67;;;1.57;;
26600;SDS011;14241;49.260;10.496;2022-09-09T03:49:02;3.15;;;1.60;;
26600;SDS011;14241;49.260;10.496;2022-09-09T03:51:27;5.03;;;1.30;;
26600;SDS011;14241;49.260;10.496;2022-09-09T03:53:53;7.07;;;1.80;;
26600;SDS011;14241;49.260;10.496;2022-09-09T03:56:20;6.32;;;1.75;;
26600;SDS011;14241;49.260;10.496;2022-09-09T03:58:46;5.53;;;1.63;;
26600;SDS011;14241;49.260;10.496;2022-09-09T04:01:12;4.95;;;1.60;;
26600;SDS011;14241;49.260;10.496;2022-09-09T04:03:42;4.25;;;2.00;;
26600;SDS011;14241;49.260;10.496;2022-09-09T04:06:10;2.95;;;1.80;;
26600;SDS011;14241;49.260;10.496;2022-09-09T04:08:36;4.55;;;1.60;;
26600;SDS011;14241;49.260;10.496;2022-09-09T04:11:03;3.17;;;1.33;;
26600;SDS011;14241;49.260;10.496;2022-09-09T04:13:31;3.88;;;1.50;;
26600;SDS011;14241;49.260;10.496;2022-09-09T04:15:57;5.07;;;1.60;;
26600;SDS011;14241;49.260;10.496;2022-09-09T04:18:23;3.97;;;1.75;;
26600;SDS011;14241;49.260;10.496;2022-09-09T04:20:49;3.92;;;1.60;;
26600;SDS011;14241;49.260;10.496;2022-09-09T04:23:15;3.78;;;1.60;;
26600;SDS011;14241;49.260;10.496;2022-09-09T04:25:45;4.60;;;1.58;;
26600;SDS011;14241;49.260;10.496;2022-09-09T04:28:12;4.22;;;1.80;;
26600;SDS011;14241;49.260;10.496;2022-09-09T04:30:37;3.50;;;1.80;;
26600;SDS011;14241;49.260;10.496;2022-09-09T04:33:05;4.13;;;1.67;;
26600;SDS011;14241;49.260;10.496;2022-09-09T04:35:30;5.07;;;1.90;;
26600;SDS011;14241;49.260;10.496;2022-09-09T04:37:55;4.75;;;1.75;;
26600;SDS011;14241;49.260;10.496;2022-09-09T04:40:21;4.63;;;1.80;;
26600;SDS011;14241;49.260;10.496;2022-09-09T04:42:47;3.20;;;1.58;;
26600;SDS011;14241;49.260;10.496;2022-09-09T04:45:13;2.75;;;1.65;;
26600;SDS011;14241;49.260;10.496;2022-09-09T04:47:38;3.60;;;1.65;;
26600;SDS011;14241;49.260;10.496;2022-09-09T04:50:03;4.75;;;1.65;;
26600;SDS011;14241;49.260;10.496;2022-09-09T04:52:30;3.03;;;1.80;;
26600;SDS011;14241;49.260;10.496;2022-09-09T04:54:55;5.15;;;1.88;;
26600;SDS011;14241;49.260;10.496;2022-09-09T04:57:20;3.35;;;1.52;;
26600;SDS011;14241;49.260;10.496;2022-09-09T04:59:45;2.97;;;1.95;;
26600;SDS011;14241;49.260;10.496;2022-09-09T05:02:11;2.57;;;1.70;;
26600;SDS011;14241;49.260;10.496;2022-09-09T05:04:36;2.95;;;1.75;;
26600;SDS011;14241;49.260;10.496;2022-09-09T05:07:01;4.53;;;1.90;;
26600;SDS011;14241;49.260;10.496;2022-09-09T05:09:26;2.77;;;1.60;;
26600;SDS011;14241;49.260;10.496;2022-09-09T05:11:52;3.17;;;1.63;;
26600;SDS011;14241;49.260;10.496;2022-09-09T05:14:17;3.63;;;1.70;;
26600;SDS011;14241;49.260;10.496;2022-09-09T05:16:44;4.15;;;1.80;;
26600;SDS011;14241;49.260;10.496;2022-09-09T05:19:09;3.85;;;1.77;;
26600;SDS011;14241;49.260;10.496;2022-09-09T05:21:35;5.53;;;2.13;;
26600;SDS011;14241;49.260;10.496;2022-09-09T05:24:00;6.28;;;1.70;;
26600;SDS011;14241;49.260;10.496;2022-09-09T05:26:26;5.47;;;1.88;;
26600;SDS011;14241;49.260;10.496;2022-09-09T05:28:51;2.92;;;1.50;;
26600;SDS011;14241;49.260;10.496;2022-09-09T05:31:16;2.22;;;1.38;;
26600;SDS011;14241;49.260;10.496;2022-09-09T05:33:43;3.75;;;1.70;;
26600;SDS011;14241;49.260;10.496;2022-09-09T05:36:09;5.15;;;1.60;;
26600;SDS011;14241;49.260;10.496;2022-09-09T05:38:36;3.65;;;1.70;;
26600;SDS011;14241;49.260;10.496;2022-09-09T05:41:02;3.03;;;1.70;;
26600;SDS011;14241;49.260;10.496;2022-09-09T05:43:27;2.97;;;1.35;;
26600;SDS011;14241;49.260;10.496;2022-09-09T05:48:33;4.60;;;1.50;;
26600;SDS011;14241;49.260;10.496;2022-09-09T05:50:59;3.45;;;1.42;;
26600;SDS011;14241;49.260;10.496;2022-09-09T05:53:25;7.03;;;1.55;;
26600;SDS011;14241;49.260;10.496;2022-09-09T05:55:50;3.55;;;1.55;;
26600;SDS011;14241;49.260;10.496;2022-09-09T05:58:15;8.98;;;3.75;;
26600;SDS011;14241;49.260;10.496;2022-09-09T06:00:41;3.85;;;1.58;;
26600;SDS011;14241;49.260;10.496;2022-09-09T06:03:09;3.60;;;1.10;;
26600;SDS011;14241;49.260;10.496;2022-09-09T06:05:35;2.72;;;0.90;;
26600;SDS011;14241;49.260;10.496;2022-09-09T06:08:00;3.08;;;1.20;;
26600;SDS011;14241;49.260;10.496;2022-09-09T06:10:25;2.83;;;1.33;;
26600;SDS011;14241;49.260;10.496;2022-09-09T06:12:52;2.30;;;1.00;;
26600;SDS011;14241;49.260;10.496;2022-09-09T06:15:17;4.15;;;1.13;;
26600;SDS011;14241;49.260;10.496;2022-09-09T06:17:42;3.65;;;1.30;;
26600;SDS011;14241;49.260;10.496;2022-09-09T06:20:08;3.15;;;1.52;;
26600;SDS011;14241;49.260;10.496;2022-09-09T06:22:34;3.30;;;1.23;;
26600;SDS011;14241;49.260;10.496;2022-09-09T06:24:59;4.32;;;1.48;;
26600;SDS011;14241;49.260;10.496;2022-09-09T06:27:27;3.80;;;1.30;;
26600;SDS011;14241;49.260;10.496;2022-09-09T06:29:52;3.28;;;1.13;;
26600;SDS011;14241;49.260;10.496;2022-09-09T06:32:17;5.72;;;1.33;;
26600;SDS011;14241;49.260;10.496;2022-09-09T06:34:42;3.40;;;1.30;;
26600;SDS011;14241;49.260;10.496;2022-09-09T06:37:10;2.88;;;1.33;;
26600;SDS011;14241;49.260;10.496;2022-09-09T06:39:35;2.70;;;1.55;;
26600;SDS011;14241;49.260;10.496;2022-09-09T06:42:00;2.85;;;1.48;;
26600;SDS011;14241;49.260;10.496;2022-09-09T06:44:26;4.20;;;1.25;;
26600;SDS011;14241;49.260;10.496;2022-09-09T06:46:52;5.05;;;1.10;;
26600;SDS011;14241;49.260;10.496;2022-09-09T06:49:17;2.28;;;0.93;;
26600;SDS011;14241;49.260;10.496;2022-09-09T06:51:42;2.80;;;1.25;;
26600;SDS011;14241;49.260;10.496;2022-09-09T06:54:09;3.17;;;1.05;;
26600;SDS011;14241;49.260;10.496;2022-09-09T06:56:36;6.85;;;1.50;;
26600;SDS011;14241;49.260;10.496;2022-09-09T06:59:03;2.33;;;0.88;;
26600;SDS011;14241;49.260;10.496;2022-09-09T07:01:47;3.97;;;1.30;;
26600;SDS011;14241;49.260;10.496;2022-09-09T07:04:12;5.78;;;0.98;;
26600;SDS011;14241;49.260;10.496;2022-09-09T07:06:39;4.22;;;1.08;;
26600;SDS011;14241;49.260;10.496;2022-09-09T07:09:06;2.75;;;0.93;;
26600;SDS011;14241;49.260;10.496;2022-09-09T07:11:37;1.77;;;0.70;;
26600;SDS011;14241;49.260;10.496;2022-09-09T07:14:02;3.70;;;0.98;;
26600;SDS011;14241;49.260;10.496;2022-09-09T07:16:28;5.70;;;1.23;;
26600;SDS011;14241;49.260;10.496;2022-09-09T07:18:54;3.08;;;0.93;;
26600;SDS011;14241;49.260;10.496;2022-09-09T07:21:27;4.60;;;1.10;;
26600;SDS011;14241;49.260;10.496;2022-09-09T07:23:53;2.95;;;0.90;;
26600;SDS011;14241;49.260;10.496;2022-09-09T07:26:19;3.15;;;1.00;;
26600;SDS011;14241;49.260;10.496;2022-09-09T07:28:45;1.90;;;0.75;;
26600;SDS011;14241;49.260;10.496;2022-09-09T07:31:29;2.72;;;0.90;;
26600;SDS011;14241;49.260;10.496;2022-09-09T07:33:58;3.33;;;0.90;;
26600;SDS011;14241;49.260;10.496;2022-09-09T07:36:29;3.28;;;0.90;;
26600;SDS011;14241;49.260;10.496;2022-09-09T07:39:13;4.38;;;1.13;;
26600;SDS011;14241;49.260;10.496;2022-09-09T07:41:39;3.58;;;0.95;;
26600;SDS011;14241;49.260;10.496;2022-09-09T07:44:09;2.45;;;0.50;;
26600;SDS011;14241;49.260;10.496;2022-09-09T07:46:35;2.10;;;0.70;;
26600;SDS011;14241;49.260;10.496;2022-09-09T07:49:01;3.15;;;0.68;;
26600;SDS011;14241;49.260;10.496;2022-09-09T07:51:28;2.78;;;0.80;;
26600;SDS011;14241;49.260;10.496;2022-09-09T07:53:54;6.15;;;1.23;;
26600;SDS011;14241;49.260;10.496;2022-09-09T07:56:20;7.10;;;0.90;;
26600;SDS011;14241;49.260;10.496;2022-09-09T07:58:48;3.88;;;0.73;;
26600;SDS011;14241;49.260;10.496;2022-09-09T08:01:15;1.95;;;0.90;;
26600;SDS011;14241;49.260;10.496;2022-09-09T08:03:42;4.35;;;0.70;;
26600;SDS011;14241;49.260;10.496;2022-09-09T08:06:07;4.18;;;0.85;;
26600;SDS011;14241;49.260;10.496;2022-09-09T08:08:34;4.00;;;0.85;;
26600;SDS011;14241;49.260;10.496;2022-09-09T08:11:03;4.05;;;0.75;;
26600;SDS011;14241;49.260;10.496;2022-09-09T08:13:28;3.60;;;1.13;;
26600;SDS011;14241;49.260;10.496;2022-09-09T08:15:54;4.35;;;0.85;;
26600;SDS011;14241;49.260;10.496;2022-09-09T08:18:19;3.33;;;0.73;;
26600;SDS011;14241;49.260;10.496;2022-09-09T08:20:44;4.85;;;0.88;;
26600;SDS011;14241;49.260;10.496;2022-09-09T08:23:09;3.22;;;1.02;;
26600;SDS011;14241;49.260;10.496;2022-09-09T08:25:35;3.50;;;0.77;;
26600;SDS011;14241;49.260;10.496;2022-09-09T08:28:00;2.43;;;0.90;;
26600;SDS011;14241;49.260;10.496;2022-09-09T08:30:25;3.25;;;0.88;;
26600;SDS011;14241;49.260;10.496;2022-09-09T08:32:51;2.38;;;0.70;;
26600;SDS011;14241;49.260;10.496;2022-09-09T08:35:17;2.22;;;0.50;;
26600;SDS011;14241;49.260;10.496;2022-09-09T08:37:42;5.70;;;0.80;;
26600;SDS011;14241;49.260;10.496;2022-09-09T08:40:09;4.95;;;0.95;;
26600;SDS011;14241;49.260;10.496;2022-09-09T08:42:40;6.47;;;1.02;;
26600;SDS011;14241;49.260;10.496;2022-09-09T08:50:30;2.22;;;0.50;;
26600;SDS011;14241;49.260;10.496;2022-09-09T08:58:08;3.87;;;0.83;;
26600;SDS011;14241;49.260;10.496;2022-09-09T09:03:07;3.57;;;0.70;;
26600;SDS011;14241;49.260;10.496;2022-09-09T09:10:30;5.60;;;0.80;;
26600;SDS011;14241;49.260;10.496;2022-09-09T09:12:57;4.55;;;0.80;;
26600;SDS011;14241;49.260;10.496;2022-09-09T09:15:23;1.42;;;0.65;;
26600;SDS011;14241;49.260;10.496;2022-09-09T09:17:49;3.03;;;0.70;;
26600;SDS011;14241;49.260;10.496;2022-09-09T09:20:15;2.17;;;0.68;;
26600;SDS011;14241;49.260;10.496;2022-09-09T09:22:48;2.63;;;0.73;;
26600;SDS011;14241;49.260;10.496;2022-09-09T09:25:23;3.45;;;0.68;;
26600;SDS011;14241;49.260;10.496;2022-09-09T09:30:37;1.35;;;0.65;;
26600;SDS011;14241;49.260;10.496;2022-09-09T09:33:05;2.42;;;0.88;;
26600;SDS011;14241;49.260;10.496;2022-09-09T09:35:35;3.00;;;0.60;;
26600;SDS011;14241;49.260;10.496;2022-09-09T09:38:00;5.30;;;0.83;;
26600;SDS011;14241;49.260;10.496;2022-09-09T09:40:26;1.40;;;0.60;;
26600;SDS011;14241;49.260;10.496;2022-09-09T09:42:59;5.90;;;0.70;;
26600;SDS011;14241;49.260;10.496;2022-09-09T09:45:29;3.08;;;0.65;;
26600;SDS011;14241;49.260;10.496;2022-09-09T09:50:24;3.65;;;0.90;;
26600;SDS011;14241;49.260;10.496;2022-09-09T09:52:53;4.13;;;0.93;;
26600;SDS011;14241;49.260;10.496;2022-09-09T09:55:19;1.95;;;0.63;;
26600;SDS011;14241;49.260;10.496;2022-09-09T09:57:45;2.50;;;0.70;;
26600;SDS011;14241;49.260;10.496;2022-09-09T10:00:15;2.45;;;0.65;;
26600;SDS011;14241;49.260;10.496;2022-09-09T10:02:42;4.47;;;0.93;;
26600;SDS011;14241;49.260;10.496;2022-09-09T10:05:13;4.50;;;1.17;;
26600;SDS011;14241;49.260;10.496;2022-09-09T10:07:39;3.25;;;0.73;;
26600;SDS011;14241;49.260;10.496;2022-09-09T10:10:04;6.22;;;0.80;;
26600;SDS011;14241;49.260;10.496;2022-09-09T10:17:33;5.65;;;0.98;;
26600;SDS011;14241;49.260;10.496;2022-09-09T10:20:11;2.80;;;0.60;;
26600;SDS011;14241;49.260;10.496;2022-09-09T10:22:43;5.72;;;0.90;;
26600;SDS011;14241;49.260;10.496;2022-09-09T10:25:26;2.08;;;0.85;;
26600;SDS011;14241;49.260;10.496;2022-09-09T10:33:04;4.97;;;1.02;;
26600;SDS011;14241;49.260;10.496;2022-09-09T10:35:39;1.70;;;0.60;;
26600;SDS011;14241;49.260;10.496;2022-09-09T10:38:21;2.60;;;0.63;;
26600;SDS011;14241;49.260;10.496;2022-09-09T10:43:23;4.03;;;0.70;;
26600;SDS011;14241;49.260;10.496;2022-09-09T10:53:21;3.78;;;0.70;;
26600;SDS011;14241;49.260;10.496;2022-09-09T10:55:51;1.52;;;0.47;;
26600;SDS011;14241;49.260;10.496;2022-09-09T10:58:24;3.50;;;0.82;;
26600;SDS011;14241;49.260;10.496;2022-09-09T11:00:54;2.25;;;0.70;;
26600;SDS011;14241;49.260;10.496;2022-09-09T11:03:26;1.20;;;0.50;;
26600;SDS011;14241;49.260;10.496;2022-09-09T11:06:06;4.03;;;0.65;;
26600;SDS011;14241;49.260;10.496;2022-09-09T11:08:35;5.45;;;0.80;;
26600;SDS011;14241;49.260;10.496;2022-09-09T11:13:34;3.35;;;0.70;;
26600;SDS011;14241;49.260;10.496;2022-09-09T11:16:05;4.20;;;0.63;;
26600;SDS011;14241;49.260;10.496;2022-09-09T11:18:35;3.97;;;0.70;;
26600;SDS011;14241;49.260;10.496;2022-09-09T11:21:03;4.20;;;0.82;;
26600;SDS011;14241;49.260;10.496;2022-09-09T11:23:42;3.03;;;0.75;;
26600;SDS011;14241;49.260;10.496;2022-09-09T11:26:12;2.15;;;0.70;;
26600;SDS011;14241;49.260;10.496;2022-09-09T11:28:43;3.30;;;0.50;;
26600;SDS011;14241;49.260;10.496;2022-09-09T11:31:19;2.38;;;0.55;;
26600;SDS011;14241;49.260;10.496;2022-09-09T11:39:09;2.63;;;0.70;;
26600;SDS011;14241;49.260;10.496;2022-09-09T11:41:43;5.10;;;0.80;;
26600;SDS011;14241;49.260;10.496;2022-09-09T11:44:12;3.17;;;0.53;;
26600;SDS011;14241;49.260;10.496;2022-09-09T11:46:38;2.28;;;0.68;;
26600;SDS011;14241;49.260;10.496;2022-09-09T11:49:05;2.47;;;0.60;;
26600;SDS011;14241;49.260;10.496;2022-09-09T11:51:32;3.13;;;1.10;;
26600;SDS011;14241;49.260;10.496;2022-09-09T11:53:58;2.53;;;0.88;;
26600;SDS011;14241;49.260;10.496;2022-09-09T11:58:59;1.75;;;0.65;;
26600;SDS011;14241;49.260;10.496;2022-09-09T12:01:41;2.45;;;0.60;;
26600;SDS011;14241;49.260;10.496;2022-09-09T12:04:12;8.65;;;1.30;;
26600;SDS011;14241;49.260;10.496;2022-09-09T12:09:10;8.88;;;1.88;;
26600;SDS011;14241;49.260;10.496;2022-09-09T12:11:40;3.47;;;0.70;;
26600;SDS011;14241;49.260;10.496;2022-09-09T12:14:18;2.22;;;0.60;;
26600;SDS011;14241;49.260;10.496;2022-09-09T12:16:43;3.80;;;0.90;;
26600;SDS011;14241;49.260;10.496;2022-09-09T12:21:44;5.80;;;1.10;;
26600;SDS011;14241;49.260;10.496;2022-09-09T12:24:11;1.98;;;0.98;;
26600;SDS011;14241;49.260;10.496;2022-09-09T12:26:40;1.08;;;0.50;;
26600;SDS011;14241;49.260;10.496;2022-09-09T12:32:16;1.67;;;0.55;;
26600;SDS011;14241;49.260;10.496;2022-09-09T12:34:35;5.80;;;0.63;;
26600;SDS011;14241;49.260;10.496;2022-09-09T12:37:13;2.53;;;0.70;;
26600;SDS011;14241;49.260;10.496;2022-09-09T12:39:44;4.40;;;0.73;;
26600;SDS011;14241;49.260;10.496;2022-09-09T12:42:18;3.80;;;0.77;;
26600;SDS011;14241;49.260;10.496;2022-09-09T12:44:55;2.53;;;0.65;;
26600;SDS011;14241;49.260;10.496;2022-09-09T12:47:21;4.15;;;0.80;;
26600;SDS011;14241;49.260;10.496;2022-09-09T12:49:47;1.83;;;0.52;;
26600;SDS011;14241;49.260;10.496;2022-09-09T12:54:44;1.60;;;0.70;;
26600;SDS011;14241;49.260;10.496;2022-09-09T12:57:12;6.13;;;0.77;;
26600;SDS011;14241;49.260;10.496;2022-09-09T12:59:39;3.47;;;0.70;;
26600;SDS011;14241;49.260;10.496;2022-09-09T13:02:25;3.63;;;0.63;;
26600;SDS011;14241;49.260;10.496;2022-09-09T13:04:50;2.83;;;0.75;;
26600;SDS011;14241;49.260;10.496;2022-09-09T13:07:16;3.85;;;0.57;;
26600;SDS011;14241;49.260;10.496;2022-09-09T13:09:43;2.13;;;0.57;;
26600;SDS011;14241;49.260;10.496;2022-09-09T13:12:29;2.58;;;0.70;;
26600;SDS011;14241;49.260;10.496;2022-09-09T13:14:54;3.17;;;0.75;;
26600;SDS011;14241;49.260;10.496;2022-09-09T13:17:22;4.07;;;0.98;;
26600;SDS011;14241;49.260;10.496;2022-09-09T13:19:48;2.90;;;0.90;;
26600;SDS011;14241;49.260;10.496;2022-09-09T13:22:22;4.82;;;0.88;;
26600;SDS011;14241;49.260;10.496;2022-09-09T13:24:58;2.65;;;0.80;;
26600;SDS011;14241;49.260;10.496;2022-09-09T13:27:28;2.35;;;0.60;;
26600;SDS011;14241;49.260;10.496;2022-09-09T13:29:54;4.35;;;0.90;;
26600;SDS011;14241;49.260;10.496;2022-09-09T13:32:21;3.95;;;0.68;;
26600;SDS011;14241;49.260;10.496;2022-09-09T13:34:57;2.20;;;0.60;;
26600;SDS011;14241;49.260;10.496;2022-09-09T13:39:53;3.88;;;0.90;;
26600;SDS011;14241;49.260;10.496;2022-09-09T13:42:26;5.45;;;0.95;;
26600;SDS011;14241;49.260;10.496;2022-09-09T13:44:52;3.08;;;0.80;;
26600;SDS011;14241;49.260;10.496;2022-09-09T13:47:19;2.05;;;0.50;;
26600;SDS011;14241;49.260;10.496;2022-09-09T13:49:45;1.50;;;0.35;;
26600;SDS011;14241;49.260;10.496;2022-09-09T13:52:14;3.13;;;0.52;;
26600;SDS011;14241;49.260;10.496;2022-09-09T13:54:40;1.20;;;0.32;;
26600;SDS011;14241;49.260;10.496;2022-09-09T13:57:13;2.38;;;0.50;;
26600;SDS011;14241;49.260;10.496;2022-09-09T13:59:38;1.90;;;0.40;;
26600;SDS011;14241;49.260;10.496;2022-09-09T14:02:04;0.63;;;0.50;;
26600;SDS011;14241;49.260;10.496;2022-09-09T14:04:29;1.48;;;0.40;;
26600;SDS011;14241;49.260;10.496;2022-09-09T14:06:55;3.78;;;0.50;;
26600;SDS011;14241;49.260;10.496;2022-09-09T14:09:21;0.75;;;0.38;;
26600;SDS011;14241;49.260;10.496;2022-09-09T14:11:46;1.10;;;0.30;;
26600;SDS011;14241;49.260;10.496;2022-09-09T14:14:11;0.80;;;0.20;;
26600;SDS011;14241;49.260;10.496;2022-09-09T14:16:36;0.50;;;0.20;;
26600;SDS011;14241;49.260;10.496;2022-09-09T14:19:02;1.02;;;0.30;;
26600;SDS011;14241;49.260;10.496;2022-09-09T14:21:28;0.45;;;0.20;;
26600;SDS011;14241;49.260;10.496;2022-09-09T14:23:53;1.85;;;0.32;;
26600;SDS011;14241;49.260;10.496;2022-09-09T14:26:19;1.23;;;0.25;;
26600;SDS011;14241;49.260;10.496;2022-09-09T14:28:48;0.88;;;0.40;;
26600;SDS011;14241;49.260;10.496;2022-09-09T14:31:13;1.40;;;0.28;;
26600;SDS011;14241;49.260;10.496;2022-09-09T14:33:38;2.20;;;0.38;;
26600;SDS011;14241;49.260;10.496;2022-09-09T14:36:04;3.83;;;0.35;;
26600;SDS011;14241;49.260;10.496;2022-09-09T14:38:30;1.30;;;0.40;;
26600;SDS011;14241;49.260;10.496;2022-09-09T14:40:55;1.77;;;0.38;;
26600;SDS011;14241;49.260;10.496;2022-09-09T14:43:21;5.53;;;0.40;;
26600;SDS011;14241;49.260;10.496;2022-09-09T14:45:46;1.83;;;0.60;;
26600;SDS011;14241;49.260;10.496;2022-09-09T14:48:13;2.85;;;0.40;;
26600;SDS011;14241;49.260;10.496;2022-09-09T14:50:39;0.20;;;0.20;;
26600;SDS011;14241;49.260;10.496;2022-09-09T14:53:05;1.98;;;0.60;;
26600;SDS011;14241;49.260;10.496;2022-09-09T14:55:30;1.02;;;0.32;;
26600;SDS011;14241;49.260;10.496;2022-09-09T14:57:56;7.25;;;1.02;;
26600;SDS011;14241;49.260;10.496;2022-09-09T15:00:21;1.23;;;0.22;;
26600;SDS011;14241;49.260;10.496;2022-09-09T15:02:46;0.65;;;0.28;;
26600;SDS011;14241;49.260;10.496;2022-09-09T15:05:12;0.85;;;0.28;;
26600;SDS011;14241;49.260;10.496;2022-09-09T15:07:37;1.27;;;0.20;;
26600;SDS011;14241;49.260;10.496;2022-09-09T15:10:04;0.93;;;0.50;;
26600;SDS011;14241;49.260;10.496;2022-09-09T15:12:29;3.00;;;1.10;;
26600;SDS011;14241;49.260;10.496;2022-09-09T15:14:55;2.03;;;0.40;;
26600;SDS011;14241;49.260;10.496;2022-09-09T15:17:20;1.55;;;0.35;;
26600;SDS011;14241;49.260;10.496;2022-09-09T15:19:46;3.03;;;0.40;;
26600;SDS011;14241;49.260;10.496;2022-09-09T15:22:11;3.53;;;0.47;;
26600;SDS011;14241;49.260;10.496;2022-09-09T15:24:36;0.98;;;0.30;;
26600;SDS011;14241;49.260;10.496;2022-09-09T15:27:01;1.57;;;0.50;;
26600;SDS011;14241;49.260;10.496;2022-09-09T15:29:27;1.33;;;0.50;;
26600;SDS011;14241;49.260;10.496;2022-09-09T15:31:55;1.45;;;0.40;;
26600;SDS011;14241;49.260;10.496;2022-09-09T15:34:21;2.33;;;0.55;;
26600;SDS011;14241;49.260;10.496;2022-09-09T15:36:46;0.88;;;0.40;;
26600;SDS011;14241;49.260;10.496;2022-09-09T15:39:12;1.35;;;0.43;;
26600;SDS011;14241;49.260;10.496;2022-09-09T15:41:40;1.92;;;0.70;;
26600;SDS011;14241;49.260;10.496;2022-09-09T15:44:05;1.00;;;0.30;;
26600;SDS011;14241;49.260;10.496;2022-09-09T15:46:34;5.00;;;0.55;;
26600;SDS011;14241;49.260;10.496;2022-09-09T15:51:27;0.45;;;0.20;;
26600;SDS011;14241;49.260;10.496;2022-09-09T15:53:56;0.55;;;0.30;;
26600;SDS011;14241;49.260;10.496;2022-09-09T15:56:22;2.25;;;0.30;;
26600;SDS011;14241;49.260;10.496;2022-09-09T15:58:48;1.95;;;0.43;;
26600;SDS011;14241;49.260;10.496;2022-09-09T16:01:13;0.80;;;0.30;;
26600;SDS011;14241;49.260;10.496;2022-09-09T16:03:39;2.33;;;0.30;;
26600;SDS011;14241;49.260;10.496;2022-09-09T16:06:05;2.55;;;0.50;;
26600;SDS011;14241;49.260;10.496;2022-09-09T16:08:50;3.97;;;0.75;;
26600;SDS011;14241;49.260;10.496;2022-09-09T16:11:16;1.98;;;0.45;;
26600;SDS011;14241;49.260;10.496;2022-09-09T16:13:42;1.15;;;0.30;;
26600;SDS011;14241;49.260;10.496;2022-09-09T16:16:09;3.10;;;0.60;;
26600;SDS011;14241;49.260;10.496;2022-09-09T16:21:00;2.00;;;0.50;;
26600;SDS011;14241;49.260;10.496;2022-09-09T16:23:26;1.40;;;0.52;;
26600;SDS011;14241;49.260;10.496;2022-09-09T16:25:55;1.02;;;0.40;;
26600;SDS011;14241;49.260;10.496;2022-09-09T16:28:20;3.42;;;0.35;;
26600;SDS011;14241;49.260;10.496;2022-09-09T16:30:45;1.85;;;0.60;;
26600;SDS011;14241;49.260;10.496;2022-09-09T16:33:11;3.22;;;0.80;;
26600;SDS011;14241;49.260;10.496;2022-09-09T16:35:36;1.30;;;0.40;;